Time;durP1;ratioP1;P1;durP2;ratioP2;P2;SDS_P1;SDS_P2;PMS_P1;PMS_P2;Temp;Humidity;BMP_temperature;BMP_pressure;BME280_temperature;BME280_humidity;BME280_pressure;Samples;Min_cycle;Max_cycle;Signal;HPM_P1;HPM_P2
2021/10/05 00:00:52;;;;;;;24.30;13.27;;;;;;;9.30;62.83;102186.19;5129863;27;20182;-59
2021/10/05 00:03:18;;;;;;;24.27;14.27;;;;;;;9.53;62.96;102222.66;5129236;27;20195;-60
2021/10/05 00:05:43;;;;;;;25.90;15.00;;;;;;;9.27;63.28;102175.88;5130637;27;20174;-59
2021/10/05 00:08:09;;;;;;;28.07;15.37;;;;;;;9.41;63.33;102203.63;5130613;27;20174;-59
2021/10/05 00:10:34;;;;;;;19.67;13.17;;;;;;;9.36;62.82;102209.53;5130475;27;20181;-59
2021/10/05 00:13:00;;;;;;;22.27;14.13;;;;;;;8.99;61.99;102166.59;5129121;28;20177;-59
2021/10/05 00:15:25;;;;;;;19.33;12.87;;;;;;;9.14;61.11;102187.66;5113852;28;20234;-59
2021/10/05 00:17:51;;;;;;;24.90;12.87;;;;;;;8.96;61.35;102170.16;5109949;28;20232;-60
2021/10/05 00:20:17;;;;;;;24.97;14.03;;;;;;;9.25;61.92;102208.66;5108580;28;20182;-59
2021/10/05 00:22:43;;;;;;;26.83;15.93;;;;;;;9.17;62.76;102209.00;5109845;28;20261;-61
2021/10/05 00:25:09;;;;;;;34.40;16.33;;;;;;;9.16;62.95;102208.22;5108242;28;20183;-59
2021/10/05 00:27:35;;;;;;;66.27;29.43;;;;;;;9.16;63.17;102213.75;5110319;28;20201;-61
2021/10/05 00:30:02;;;;;;;41.60;20.67;;;;;;;9.17;63.38;102220.84;5091385;28;20656;-59
2021/10/05 00:32:27;;;;;;;30.83;15.80;;;;;;;9.19;63.19;102221.28;5109582;28;20186;-59
2021/10/05 00:34:53;;;;;;;39.70;16.30;;;;;;;9.15;62.76;102217.69;5125632;28;20201;-59
2021/10/05 00:37:18;;;;;;;27.97;15.97;;;;;;;9.21;63.38;102223.63;5130178;28;20253;-59
2021/10/05 00:39:44;;;;;;;29.13;14.70;;;;;;;9.11;63.72;102202.22;5130617;28;20188;-59
2021/10/05 00:42:10;;;;;;;26.97;14.20;;;;;;;8.90;63.11;102172.47;5130044;28;20185;-60
2021/10/05 00:44:38;;;;;;;27.67;14.77;;;;;;;9.25;62.82;102218.94;5128801;28;20166;-61
2021/10/05 00:47:06;;;;;;;25.03;14.27;;;;;;;9.16;61.98;102224.81;5114727;28;20281;-60
2021/10/05 00:49:32;;;;;;;35.47;17.47;;;;;;;9.07;64.84;102220.78;5110097;28;20253;-60
2021/10/05 00:51:59;;;;;;;30.83;16.00;;;;;;;9.03;63.88;102214.44;5109086;28;20626;-60
2021/10/05 00:54:25;;;;;;;36.80;17.37;;;;;;;8.74;64.56;102179.44;5108695;28;20187;-62
2021/10/05 00:56:51;;;;;;;27.30;16.13;;;;;;;8.41;64.45;102118.75;5108823;28;20186;-59
2021/10/05 00:59:16;;;;;;;26.90;14.50;;;;;;;9.09;63.83;102223.94;5109438;28;20186;-60
2021/10/05 01:01:42;;;;;;;30.63;14.30;;;;;;;9.09;63.07;102224.75;5109662;28;20560;-60
2021/10/05 01:04:08;;;;;;;25.53;14.30;;;;;;;8.77;65.61;102179.47;5118486;28;20700;-60
2021/10/05 01:06:33;;;;;;;30.60;15.50;;;;;;;9.05;65.68;102225.91;5129299;28;20243;-60
2021/10/05 01:08:59;;;;;;;29.87;17.07;;;;;;;8.87;64.58;102197.31;5128405;28;20255;-59
2021/10/05 01:11:25;;;;;;;32.60;17.33;;;;;;;8.64;64.71;102150.53;5111545;28;20178;-60
2021/10/05 01:13:50;;;;;;;31.33;17.00;;;;;;;9.10;65.61;102220.81;5112172;28;20184;-59
2021/10/05 01:16:19;;;;;;;30.57;17.33;;;;;;;8.89;65.08;102203.25;5112171;28;20203;-60
2021/10/05 01:18:47;;;;;;;54.90;25.47;;;;;;;8.87;65.87;102214.69;5112535;27;20231;-59
2021/10/05 01:21:13;;;;;;;40.93;20.37;;;;;;;8.97;65.81;102218.72;5112645;28;20187;-59
2021/10/05 01:23:39;;;;;;;43.13;22.47;;;;;;;8.66;65.97;102163.97;5112353;28;20182;-61
2021/10/05 01:26:04;;;;;;;21.70;13.63;;;;;;;8.84;66.69;102200.84;5112605;28;20169;-60
2021/10/05 01:28:31;;;;;;;21.67;13.40;;;;;;;8.92;66.73;102211.56;5094398;28;20174;-60
2021/10/05 01:30:57;;;;;;;26.53;15.70;;;;;;;8.92;66.19;102219.88;5094404;28;20230;-59
2021/10/05 01:33:25;;;;;;;25.70;15.67;;;;;;;8.99;65.57;102224.66;5112206;28;20194;-59
2021/10/05 01:35:51;;;;;;;30.50;15.47;;;;;;;9.06;64.75;102222.75;5112354;28;20215;-60
2021/10/05 01:38:17;;;;;;;30.23;15.73;;;;;;;8.73;64.55;102169.56;5112439;28;20178;-60
2021/10/05 01:40:42;;;;;;;28.40;15.73;;;;;;;9.14;64.07;102220.84;5112756;28;20185;-59
2021/10/05 01:43:08;;;;;;;34.17;16.27;;;;;;;9.08;62.91;102219.59;5112026;28;20181;-60
2021/10/05 01:45:36;;;;;;;32.37;17.63;;;;;;;9.03;62.09;102214.44;5093567;28;20186;-60
2021/10/05 01:48:02;;;;;;;42.13;19.77;;;;;;;8.99;62.81;102217.19;5112059;28;20201;-62
2021/10/05 01:50:28;;;;;;;43.63;20.37;;;;;;;8.92;62.57;102219.09;5112746;28;20231;-60
2021/10/05 01:52:54;;;;;;;46.63;22.63;;;;;;;8.88;62.38;102232.88;5112129;28;20560;-60
2021/10/05 01:55:21;;;;;;;40.73;19.87;;;;;;;8.76;62.09;102216.56;5111280;28;20743;-62
2021/10/05 01:57:47;;;;;;;20.17;12.60;;;;;;;8.79;61.61;102242.66;5090436;28;20195;-61
2021/10/05 02:00:13;;;;;;;23.90;13.73;;;;;;;8.74;61.51;102246.56;5091765;28;20190;-62
2021/10/05 02:02:38;;;;;;;26.33;13.53;;;;;;;8.66;61.59;102241.38;5092102;28;20183;-61
2021/10/05 02:05:05;;;;;;;35.77;14.03;;;;;;;8.57;61.79;102235.34;5126536;27;20181;-59
2021/10/05 02:07:31;;;;;;;32.53;14.73;;;;;;;8.57;61.59;102247.19;5133073;27;20177;-60
2021/10/05 02:09:57;;;;;;;23.87;13.90;;;;;;;8.52;61.24;102252.28;5122367;27;20185;-62
2021/10/05 02:12:22;;;;;;;22.87;13.27;;;;;;;8.46;60.75;102256.56;5112193;28;20178;-59
2021/10/05 02:14:48;;;;;;;23.30;13.20;;;;;;;8.35;60.84;102253.66;5116277;27;20694;-63
2021/10/05 02:17:16;;;;;;;24.80;13.17;;;;;;;8.32;61.01;102259.16;5132230;27;20589;-59
2021/10/05 02:19:42;;;;;;;25.70;13.70;;;;;;;8.19;62.08;102250.28;5120763;27;20181;-59
2021/10/05 02:22:08;;;;;;;30.50;13.93;;;;;;;8.15;62.63;102254.19;5110739;28;20572;-61
2021/10/05 02:24:47;;;;;;;24.30;13.57;;;;;;;8.14;62.18;102255.34;5111204;28;20270;-62
2021/10/05 02:27:16;;;;;;;23.87;13.37;;;;;;;8.09;62.55;102264.78;5111987;28;20162;-61
2021/10/05 02:29:43;;;;;;;23.13;13.50;;;;;;;8.03;62.74;102254.44;5093322;28;20182;-61
2021/10/05 02:32:10;;;;;;;23.57;12.93;;;;;;;7.62;62.94;102217.63;5111441;28;20192;-60
2021/10/05 02:34:35;;;;;;;24.30;13.10;;;;;;;7.82;62.34;102263.25;5110626;28;20174;-58
2021/10/05 02:37:02;;;;;;;27.00;13.27;;;;;;;7.60;62.59;102255.03;5111611;28;20188;-62
2021/10/05 02:39:27;;;;;;;22.50;12.97;;;;;;;7.61;63.56;102273.19;5111685;28;20170;-62
2021/10/05 02:41:53;;;;;;;26.87;12.97;;;;;;;7.61;63.65;102274.00;5111101;28;20227;-60
2021/10/05 02:44:19;;;;;;;21.37;12.77;;;;;;;7.51;64.32;102274.63;5111109;28;20169;-61
2021/10/05 02:46:45;;;;;;;24.47;13.00;;;;;;;7.24;64.91;102239.16;5111029;28;20172;-61
2021/10/05 02:49:11;;;;;;;20.77;12.93;;;;;;;7.45;65.57;102278.06;5093406;28;20270;-62
2021/10/05 02:51:36;;;;;;;29.17;15.13;;;;;;;7.39;66.07;102271.28;5110581;28;20185;-61
2021/10/05 02:54:02;;;;;;;25.03;13.97;;;;;;;7.46;65.48;102280.47;5110243;28;20669;-61
2021/10/05 02:56:28;;;;;;;22.10;12.83;;;;;;;7.39;66.17;102255.53;5110977;28;20563;-61
2021/10/05 02:58:53;;;;;;;19.97;13.00;;;;;;;7.59;66.13;102275.53;5111101;28;20238;-62
2021/10/05 03:01:19;;;;;;;19.27;12.30;;;;;;;7.37;66.12;102235.00;5110495;28;20264;-61
2021/10/05 03:03:44;;;;;;;22.57;12.43;;;;;;;7.72;66.26;102285.16;5110774;28;20174;-60
2021/10/05 03:06:10;;;;;;;20.90;12.77;;;;;;;7.64;65.72;102255.91;5110641;28;20231;-59
2021/10/05 03:08:36;;;;;;;23.10;14.17;;;;;;;7.78;65.74;102278.97;5111306;28;20610;-59
2021/10/05 03:11:02;;;;;;;30.17;15.47;;;;;;;7.85;66.05;102276.28;5110757;28;20177;-60
2021/10/05 03:13:32;;;;;;;42.33;20.53;;;;;;;7.86;65.72;102269.63;5109709;28;20308;-60
2021/10/05 03:15:59;;;;;;;65.27;29.70;;;;;;;7.92;66.33;102275.59;5110488;28;20749;-61
2021/10/05 03:18:25;;;;;;;64.73;30.90;;;;;;;7.99;66.37;102283.97;5110941;28;20222;-60
2021/10/05 03:20:50;;;;;;;66.63;32.50;;;;;;;8.03;65.58;102277.31;5109243;27;20533;-59
2021/10/05 03:23:16;;;;;;;58.97;28.67;;;;;;;8.01;64.81;102281.63;5109324;28;20192;-60
2021/10/05 03:25:42;;;;;;;55.47;23.73;;;;;;;8.02;64.27;102286.78;5110696;28;20173;-60
2021/10/05 03:28:07;;;;;;;59.70;27.43;;;;;;;8.01;64.21;102290.72;5110732;28;20682;-60
2021/10/05 03:30:33;;;;;;;39.07;19.90;;;;;;;8.06;63.56;102298.69;5110848;28;20182;-60
2021/10/05 03:32:59;;;;;;;29.20;16.07;;;;;;;8.01;63.13;102304.53;5109396;28;20201;-60
2021/10/05 03:35:24;;;;;;;25.43;13.57;;;;;;;8.01;62.56;102303.72;5109217;28;20706;-59
2021/10/05 03:37:50;;;;;;;23.23;12.60;;;;;;;8.02;62.30;102291.50;5110527;28;20677;-59
2021/10/05 03:40:15;;;;;;;14.73;11.13;;;;;;;7.96;62.38;102291.03;5110641;28;20670;-63
2021/10/05 03:42:41;;;;;;;22.57;12.50;;;;;;;7.89;61.87;102292.91;5110654;28;20167;-61
2021/10/05 03:45:07;;;;;;;21.37;12.13;;;;;;;7.73;61.91;102287.56;5110905;27;20209;-61
2021/10/05 03:47:32;;;;;;;21.17;12.57;;;;;;;7.63;62.36;102293.72;5130992;27;20237;-61
2021/10/05 03:49:58;;;;;;;19.43;11.80;;;;;;;7.65;62.92;102298.88;5130742;27;20172;-61
2021/10/05 03:52:24;;;;;;;21.17;12.27;;;;;;;7.67;63.08;102304.81;5130693;27;20259;-61
2021/10/05 03:54:49;;;;;;;16.77;11.73;;;;;;;7.67;63.31;102300.09;5128962;27;20173;-62
2021/10/05 03:57:18;;;;;;;17.17;11.80;;;;;;;7.62;64.15;102297.66;5112308;27;20188;-61
2021/10/05 03:59:45;;;;;;;24.67;12.63;;;;;;;7.63;66.01;102299.25;5115947;27;20650;-62
2021/10/05 04:02:11;;;;;;;27.23;13.67;;;;;;;7.34;66.13;102249.53;5117916;27;20189;-63
2021/10/05 04:04:36;;;;;;;28.67;12.70;;;;;;;7.70;65.92;102299.34;5108342;28;20654;-63
2021/10/05 04:07:02;;;;;;;21.07;12.60;;;;;;;7.54;65.64;102279.38;5109451;28;20695;-63
2021/10/05 04:09:28;;;;;;;20.53;13.20;;;;;;;7.70;66.74;102306.84;5109229;28;20467;-62
2021/10/05 04:11:53;;;;;;;25.73;13.00;;;;;;;7.60;66.49;102285.41;5109320;28;20175;-63
2021/10/05 04:14:18;;;;;;;24.37;13.77;;;;;;;7.72;67.25;102310.81;5090327;28;20186;-63
2021/10/05 04:16:44;;;;;;;30.87;16.83;;;;;;;7.73;65.79;102308.84;5108869;28;20252;-63
2021/10/05 04:19:10;;;;;;;26.70;15.17;;;;;;;7.65;65.03;102312.66;5107976;28;20244;-62
2021/10/05 04:21:35;;;;;;;34.20;15.13;;;;;;;7.51;64.22;102313.25;5109076;28;20230;-63
2021/10/05 04:24:00;;;;;;;25.47;14.47;;;;;;;7.42;64.10;102321.00;5086797;28;20183;-62
2021/10/05 04:26:26;;;;;;;27.83;15.53;;;;;;;7.01;64.26;102241.13;5088388;28;20205;-64
2021/10/05 04:28:51;;;;;;;24.97;15.63;;;;;;;7.49;64.00;102321.09;5103654;28;20190;-64
2021/10/05 04:31:17;;;;;;;35.63;18.10;;;;;;;7.60;64.06;102335.06;5088968;28;20174;-63
2021/10/05 04:33:42;;;;;;;27.40;15.93;;;;;;;7.60;64.21;102335.88;5087862;28;20271;-61
2021/10/05 04:36:08;;;;;;;25.63;15.47;;;;;;;7.55;63.96;102318.81;5087379;28;20185;-62
2021/10/05 04:38:34;;;;;;;26.10;15.93;;;;;;;7.61;64.50;102337.47;5095218;28;20687;-62
2021/10/05 04:40:59;;;;;;;37.87;17.07;;;;;;;7.56;64.93;102331.44;5107459;28;20647;-62
2021/10/05 04:43:25;;;;;;;42.87;17.90;;;;;;;7.55;64.81;102333.44;5108019;28;20178;-62
2021/10/05 04:45:50;;;;;;;43.30;23.87;;;;;;;7.37;64.41;102326.81;5109205;27;20721;-61
2021/10/05 04:48:16;;;;;;;32.60;17.67;;;;;;;7.58;64.22;102338.19;5106536;27;20225;-62
2021/10/05 04:50:41;;;;;;;55.67;20.33;;;;;;;7.63;64.21;102345.38;5117039;27;20275;-62
2021/10/05 04:53:07;;;;;;;49.73;24.93;;;;;;;7.70;64.10;102337.97;5103230;27;20203;-61
2021/10/05 04:55:33;;;;;;;48.63;28.73;;;;;;;7.73;63.84;102331.72;5112405;27;20540;-61
2021/10/05 04:58:02;;;;;;;34.97;16.83;;;;;;;7.79;64.73;102346.00;5065470;27;20195;-61
2021/10/05 05:00:27;;;;;;;40.20;19.33;;;;;;;7.84;64.48;102345.69;5104024;27;20258;-61
2021/10/05 05:02:53;;;;;;;31.97;19.40;;;;;;;7.87;64.56;102350.44;5105330;27;20250;-61
2021/10/05 05:05:18;;;;;;;35.57;18.33;;;;;;;7.90;64.32;102350.50;5107810;27;20636;-61
2021/10/05 05:07:43;;;;;;;33.30;15.40;;;;;;;7.91;64.28;102352.09;5105712;27;20192;-62
2021/10/05 05:10:09;;;;;;;35.33;17.53;;;;;;;7.54;62.68;102289.66;5104867;27;20197;-61
2021/10/05 05:12:35;;;;;;;35.47;16.13;;;;;;;7.69;62.97;102325.34;5110327;27;20184;-61
2021/10/05 05:15:01;;;;;;;29.30;15.97;;;;;;;7.88;62.54;102352.84;5103432;28;20207;-60
2021/10/05 05:17:27;;;;;;;44.57;16.93;;;;;;;7.94;62.52;102359.63;5108106;27;20711;-61
2021/10/05 05:19:53;;;;;;;29.50;16.17;;;;;;;8.02;62.62;102366.03;5089256;28;20208;-61
2021/10/05 05:22:18;;;;;;;32.70;17.13;;;;;;;8.04;62.72;102367.25;5110381;27;20174;-61
2021/10/05 05:24:44;;;;;;;32.17;16.40;;;;;;;8.01;63.51;102372.75;5089285;28;20208;-61
2021/10/05 05:27:10;;;;;;;30.07;16.63;;;;;;;8.06;63.59;102375.19;5108695;27;20174;-61
2021/10/05 05:29:35;;;;;;;23.23;15.47;;;;;;;8.11;63.24;102364.59;5100438;27;20681;-62
2021/10/05 05:32:01;;;;;;;25.63;16.20;;;;;;;8.24;63.13;102357.72;5106863;28;20666;-62
2021/10/05 05:34:27;;;;;;;30.90;17.97;;;;;;;8.30;62.85;102353.44;5098769;28;20178;-61
2021/10/05 05:36:54;;;;;;;32.57;18.13;;;;;;;8.22;62.87;102324.16;5087496;27;20182;-62
2021/10/05 05:39:19;;;;;;;56.23;28.93;;;;;;;8.40;63.52;102347.25;5104802;27;20242;-62
2021/10/05 05:41:45;;;;;;;36.27;20.70;;;;;;;8.51;63.80;102358.44;5108473;27;20626;-61
2021/10/05 05:44:13;;;;;;;33.73;18.30;;;;;;;8.59;63.99;102351.81;5108765;27;20327;-61
2021/10/05 05:46:39;;;;;;;39.97;17.67;;;;;;;8.58;63.47;102340.00;5114528;27;20209;-61
2021/10/05 05:49:05;;;;;;;36.10;19.53;;;;;;;8.64;63.93;102340.44;5108324;28;20474;-61
2021/10/05 10:13:22;;;;;;;10.20;5.63;;;;;;;20.97;43.88;102349.28;6222058;22;1619460;-62
2021/10/05 10:15:48;;;;;;;11.67;7.73;;;;;;;21.22;43.79;102363.16;6216715;23;20180;-63
2021/10/05 10:18:18;;;;;;;13.77;8.97;;;;;;;21.08;43.29;102347.59;6216695;23;20152;-63
2021/10/05 10:21:00;;;;;;;13.83;9.33;;;;;;;21.30;42.92;102359.63;6215662;23;20148;-64
2021/10/05 10:23:27;;;;;;;16.67;9.70;;;;;;;21.42;42.24;102352.25;6217439;23;20140;-64
2021/10/05 10:26:05;;;;;;;14.00;10.03;;;;;;;21.35;42.60;102338.47;6211391;23;20607;-63
2021/10/05 10:28:37;;;;;;;15.20;10.30;;;;;;;21.50;42.07;102354.31;6214132;23;20156;-63
2021/10/05 10:31:06;;;;;;;13.00;7.03;;;;;;;21.45;42.70;102352.09;6215258;23;20636;-66
2021/10/05 10:33:52;;;;;;;16.37;7.67;;;;;;;21.51;42.00;102322.06;6203644;23;20477;-67
2021/10/05 10:36:40;;;;;;;14.33;9.73;;;;;;;21.44;41.04;102305.41;6211690;23;20182;-65
2021/10/05 10:39:13;;;;;;;15.57;9.90;;;;;;;21.59;40.88;102333.81;6210950;23;20137;-64
2021/10/05 10:41:41;;;;;;;22.53;12.97;;;;;;;21.64;41.39;102324.75;6238718;23;20160;-64
2021/10/05 10:44:11;;;;;;;17.20;8.87;;;;;;;21.81;40.78;102326.81;6212026;23;20163;-65
2021/10/05 10:46:39;;;;;;;14.13;8.87;;;;;;;21.67;40.59;102326.63;6214737;23;20172;-64
2021/10/05 10:49:14;;;;;;;15.37;9.43;;;;;;;21.91;40.14;102330.44;6215571;23;20167;-64
2021/10/05 10:51:41;;;;;;;15.67;7.43;;;;;;;21.75;40.52;102303.28;6216470;23;20297;-65
2021/10/05 10:54:15;;;;;;;15.13;7.47;;;;;;;22.18;39.65;102322.75;6215856;23;20163;-65
2021/10/05 10:56:42;;;;;;;14.40;6.67;;;;;;;22.07;39.50;102285.75;6213423;23;20159;-65
2021/10/05 10:59:14;;;;;;;13.30;5.87;;;;;;;22.52;39.06;102318.81;6217552;23;20156;-65
2021/10/05 11:01:41;;;;;;;9.97;4.77;;;;;;;22.47;38.24;102313.78;6218529;23;20156;-64
2021/10/05 11:04:08;;;;;;;9.47;5.03;;;;;;;22.07;38.01;102279.31;6218486;23;20646;-64
2021/10/05 11:06:34;;;;;;;14.87;5.67;;;;;;;22.48;38.44;102306.88;6241998;23;20180;-64
2021/10/05 11:09:01;;;;;;;9.93;5.07;;;;;;;22.47;39.34;102303.25;6209929;23;20256;-64
2021/10/05 11:11:37;;;;;;;12.17;5.10;;;;;;;21.96;38.36;102219.72;6206967;23;20232;-64
2021/10/05 11:14:08;;;;;;;9.23;5.27;;;;;;;22.60;39.02;102301.03;6208864;23;20626;-64
2021/10/05 11:16:36;;;;;;;12.93;4.83;;;;;;;22.77;38.44;102301.47;6208050;23;20177;-66
2021/10/05 11:19:05;;;;;;;8.17;5.03;;;;;;;22.94;38.10;102311.91;6207112;23;20149;-66
2021/10/05 11:21:36;;;;;;;8.30;4.77;;;;;;;22.99;37.74;102288.63;6208435;23;20160;-66
2021/10/05 11:24:02;;;;;;;12.27;6.37;;;;;;;23.30;36.13;102300.44;6206785;23;20152;-65
2021/10/05 11:26:38;;;;;;;15.37;9.80;;;;;;;23.09;36.23;102298.63;6208962;23;20152;-66
2021/10/05 11:29:05;;;;;;;12.13;7.60;;;;;;;23.23;36.54;102291.53;6203899;23;20590;-65
2021/10/05 11:31:49;;;;;;;20.40;10.43;;;;;;;23.21;35.62;102289.16;6207542;23;20510;-65
2021/10/05 11:34:16;;;;;;;19.70;14.80;;;;;;;23.28;36.17;102283.16;6207586;23;20160;-65
2021/10/05 11:36:43;;;;;;;24.80;16.73;;;;;;;23.48;36.54;102282.53;6208266;23;20184;-65
2021/10/05 11:39:09;;;;;;;22.77;17.83;;;;;;;23.66;35.74;102280.38;6208859;23;20575;-65
2021/10/05 11:41:41;;;;;;;22.10;19.80;;;;;;;23.38;35.63;102228.06;6183407;23;20160;-65
2021/10/05 11:44:18;;;;;;;22.97;20.23;;;;;;;23.84;35.76;102266.06;6207405;23;20163;-66
2021/10/05 11:46:57;;;;;;;21.60;18.77;;;;;;;24.10;35.12;102272.78;6208302;23;20139;-65
2021/10/05 11:49:25;;;;;;;20.93;16.50;;;;;;;24.23;35.20;102275.31;6208708;23;20148;-62
2021/10/05 11:51:55;;;;;;;23.77;19.23;;;;;;;24.16;34.26;102268.00;6207620;23;20163;-62
2021/10/05 11:54:29;;;;;;;26.97;19.67;;;;;;;24.16;34.83;102248.16;6209241;23;20156;-63
2021/10/05 11:56:57;;;;;;;27.13;21.37;;;;;;;24.36;34.05;102258.81;6208590;23;20631;-63
2021/10/05 11:59:24;;;;;;;28.70;19.23;;;;;;;24.23;33.21;102256.28;6208641;23;20237;-62
2021/10/05 12:01:56;;;;;;;23.37;13.53;;;;;;;24.24;33.41;102257.06;6209728;23;20175;-63
2021/10/05 12:04:23;;;;;;;17.27;12.47;;;;;;;24.21;32.92;102230.47;6182777;23;20176;-63
2021/10/05 12:06:54;;;;;;;15.63;12.10;;;;;;;24.39;32.38;102249.34;6208157;23;20156;-63
2021/10/05 12:09:26;;;;;;;19.47;13.07;;;;;;;24.44;32.30;102243.78;6186009;23;20367;-60
2021/10/05 12:12:13;;;;;;;15.77;12.87;;;;;;;24.39;32.64;102229.50;6194149;23;20207;-61
2021/10/05 12:14:44;;;;;;;15.60;12.47;;;;;;;24.31;32.67;102226.28;6203578;23;20455;-61
2021/10/05 12:17:12;;;;;;;23.23;15.93;;;;;;;24.51;32.62;102226.34;6191583;23;20180;-61
2021/10/05 12:19:43;;;;;;;21.70;16.17;;;;;;;24.29;31.87;102194.03;6207562;23;20152;-60
2021/10/05 12:22:09;;;;;;;22.93;15.30;;;;;;;24.65;31.09;102221.97;6209849;23;20159;-60
2021/10/05 12:24:42;;;;;;;16.10;11.90;;;;;;;24.67;31.91;102217.38;6209191;23;20172;-60
2021/10/05 12:27:08;;;;;;;12.63;9.40;;;;;;;24.61;31.03;102215.75;6188597;23;20204;-61
2021/10/05 12:29:45;;;;;;;13.57;9.57;;;;;;;24.10;30.82;102142.47;6209217;23;20199;-60
2021/10/05 12:32:11;;;;;;;16.33;11.50;;;;;;;24.57;30.54;102189.59;6209453;23;20618;-61
2021/10/05 12:34:38;;;;;;;21.97;11.90;;;;;;;24.83;31.07;102193.38;6209636;23;20149;-60
2021/10/05 12:37:08;;;;;;;13.90;9.40;;;;;;;24.84;30.54;102177.91;6192556;23;20237;-64
2021/10/05 12:39:35;;;;;;;18.87;10.20;;;;;;;24.86;30.89;102176.16;6208854;23;20152;-62
2021/10/05 12:42:06;;;;;;;15.53;11.30;;;;;;;24.99;31.16;102193.63;6209252;23;20214;-63
2021/10/05 12:44:34;;;;;;;13.43;9.23;;;;;;;25.06;30.60;102178.22;6209521;23;20230;-63
2021/10/05 12:47:05;;;;;;;15.57;10.53;;;;;;;25.37;30.44;102181.22;6192983;23;20188;-62
2021/10/05 12:49:32;;;;;;;19.53;10.20;;;;;;;25.51;30.25;102180.34;6209650;23;20540;-63
2021/10/05 12:51:58;;;;;;;15.93;9.30;;;;;;;25.57;30.16;102172.69;6208554;23;20156;-62
2021/10/05 12:54:25;;;;;;;12.37;8.57;;;;;;;25.20;30.17;102143.31;6209093;23;20159;-61
2021/10/05 12:56:51;;;;;;;12.57;8.20;;;;;;;25.24;30.36;102152.41;6192341;23;20586;-62
2021/10/05 12:59:18;;;;;;;15.67;6.80;;;;;;;25.20;29.87;102160.34;6181475;23;20172;-62
2021/10/05 13:01:43;;;;;;;12.23;6.73;;;;;;;25.18;30.65;102123.19;6209893;23;20152;-61
2021/10/05 13:04:11;;;;;;;12.17;7.80;;;;;;;25.42;29.62;102143.59;6208751;23;20210;-62
2021/10/05 13:06:37;;;;;;;15.93;7.80;;;;;;;25.15;29.87;102124.19;6197882;23;20196;-62
